Time;durP1;ratioP1;P1;durP2;ratioP2;P2;SDS_P1;SDS_P2;PMS_P1;PMS_P2;Temp;Humidity;BMP_temperature;BMP_pressure;BME280_temperature;BME280_humidity;BME280_pressure;Samples;Min_cycle;Max_cycle;Signal;HPM_P1;HPM_P2
2023/05/29 00:01:00;;;;;;;6.57;3.92;;;25.10;53.10;;;;;;5091184;28;20028;-71
2023/05/29 00:03:26;;;;;;;6.30;3.47;;;25.10;53.10;;;;;;5089878;28;20036;-71
2023/05/29 00:05:52;;;;;;;5.93;3.85;;;25.30;53.10;;;;;;5090840;28;20059;-70
2023/05/29 00:08:18;;;;;;;10.00;4.60;;;25.20;53.10;;;;;;5089798;28;20502;-72
2023/05/29 00:10:44;;;;;;;5.53;3.60;;;25.20;53.20;;;;;;5091317;28;20027;-71
2023/05/29 00:13:10;;;;;;;6.82;3.40;;;25.20;53.30;;;;;;5088212;28;20032;-71
2023/05/29 00:15:36;;;;;;;8.10;4.13;;;25.30;53.30;;;;;;5091429;28;20070;-71
2023/05/29 00:18:02;;;;;;;8.70;4.28;;;25.10;53.30;;;;;;5095500;28;20058;-71
2023/05/29 00:20:28;;;;;;;9.40;4.10;;;25.20;53.30;;;;;;5094694;28;20036;-71
2023/05/29 00:22:55;;;;;;;7.40;3.65;;;25.20;53.30;;;;;;5094785;28;20488;-71
2023/05/29 00:25:21;;;;;;;4.40;3.28;;;25.20;53.40;;;;;;5093466;28;20040;-71
2023/05/29 00:27:47;;;;;;;5.78;3.83;;;25.40;53.30;;;;;;5094981;28;20035;-71
2023/05/29 00:30:13;;;;;;;6.97;3.92;;;25.20;53.40;;;;;;5095069;28;20380;-71
2023/05/29 00:32:39;;;;;;;5.55;3.75;;;25.20;53.40;;;;;;5093647;28;20039;-71
2023/05/29 00:35:06;;;;;;;5.43;4.00;;;25.30;53.40;;;;;;5094739;28;20077;-71
2023/05/29 00:37:32;;;;;;;7.28;3.80;;;25.20;53.40;;;;;;5094913;28;20426;-71
2023/05/29 00:39:58;;;;;;;4.50;3.83;;;25.40;53.40;;;;;;5094626;28;20392;-71
2023/05/29 00:42:24;;;;;;;7.43;3.72;;;25.40;53.40;;;;;;5094233;28;20107;-71
2023/05/29 00:44:50;;;;;;;6.05;4.20;;;25.20;53.50;;;;;;5092864;28;20036;-70
2023/05/29 00:47:16;;;;;;;3.95;3.42;;;25.30;53.50;;;;;;5094276;28;20062;-71
2023/05/29 00:49:42;;;;;;;5.60;4.03;;;25.30;53.40;;;;;;5092792;28;20038;-71
2023/05/29 00:52:10;;;;;;;4.57;3.30;;;25.30;53.40;;;;;;5092978;28;20062;-71
2023/05/29 00:54:36;;;;;;;6.80;3.33;;;25.30;53.50;;;;;;5092678;28;20043;-71
2023/05/29 00:57:04;;;;;;;6.38;3.85;;;25.20;53.50;;;;;;5092376;28;20051;-71
2023/05/29 00:59:33;;;;;;;12.60;4.10;;;25.20;53.60;;;;;;5092467;28;20040;-71
2023/05/29 01:02:02;;;;;;;7.63;4.38;;;25.30;53.70;;;;;;5092593;28;20070;-71
2023/05/29 01:04:28;;;;;;;7.25;3.97;;;25.40;53.70;;;;;;5093571;28;20046;-71
2023/05/29 01:06:55;;;;;;;14.07;4.75;;;25.30;53.70;;;;;;5094189;28;20036;-71
2023/05/29 01:09:21;;;;;;;6.65;3.88;;;25.30;53.70;;;;;;5094389;28;20056;-71
2023/05/29 01:12:02;;;;;;;5.45;4.30;;;25.10;53.80;;;;;;5094387;28;20109;-69
2023/05/29 01:14:40;;;;;;;11.00;4.43;;;25.20;53.90;;;;;;5094196;28;20032;-71
2023/05/29 01:17:26;;;;;;;6.75;4.55;;;25.20;53.90;;;;;;5093101;28;20514;-71
2023/05/29 01:20:13;;;;;;;9.40;4.38;;;25.00;54.00;;;;;;5093612;28;20039;-71
2023/05/29 01:22:51;;;;;;;6.07;3.95;;;25.10;54.00;;;;;;5093985;28;20047;-71
2023/05/29 01:25:31;;;;;;;6.93;3.67;;;25.10;54.00;;;;;;5093564;28;20047;-71
2023/05/29 01:28:01;;;;;;;4.40;3.47;;;25.20;54.00;;;;;;5092873;28;20032;-71
2023/05/29 01:30:30;;;;;;;9.30;4.18;;;25.00;54.10;;;;;;5093639;28;20051;-71
2023/05/29 01:32:56;;;;;;;8.05;4.70;;;25.00;54.10;;;;;;5094009;28;20410;-71
2023/05/29 01:35:22;;;;;;;11.00;4.57;;;25.00;54.30;;;;;;5093639;28;20024;-71
2023/05/29 01:37:48;;;;;;;6.65;3.95;;;25.00;54.40;;;;;;5075619;28;20032;-71
2023/05/29 01:40:14;;;;;;;6.78;4.15;;;25.00;54.40;;;;;;5093664;28;20055;-71
2023/05/29 01:42:41;;;;;;;8.15;4.15;;;25.00;54.40;;;;;;5093565;28;20036;-71
2023/05/29 01:45:08;;;;;;;7.65;4.35;;;25.00;54.40;;;;;;5092316;28;20089;-71
2023/05/29 01:47:35;;;;;;;6.80;4.50;;;24.90;54.30;;;;;;5093274;28;20537;-71
2023/05/29 01:50:04;;;;;;;7.65;4.10;;;25.00;54.30;;;;;;5075018;28;20551;-71
2023/05/29 01:52:30;;;;;;;6.13;4.40;;;25.00;54.30;;;;;;5093488;28;20024;-71
2023/05/29 01:54:56;;;;;;;9.15;4.18;;;24.90;54.40;;;;;;5093296;28;20073;-71
2023/05/29 01:57:23;;;;;;;7.88;4.20;;;24.90;54.30;;;;;;5091813;28;20028;-71
2023/05/29 01:59:50;;;;;;;5.68;3.83;;;24.90;54.40;;;;;;5092394;28;20109;-71
2023/05/29 02:02:16;;;;;;;10.32;5.03;;;24.90;54.30;;;;;;5091820;28;20107;-71
2023/05/29 02:04:42;;;;;;;11.10;3.88;;;25.00;54.30;;;;;;5091955;28;20135;-71
2023/05/29 02:07:08;;;;;;;9.02;4.57;;;24.90;54.20;;;;;;5093163;28;20110;-72
2023/05/29 02:09:35;;;;;;;8.70;4.28;;;24.80;54.20;;;;;;5081434;28;20034;-71
2023/05/29 02:12:02;;;;;;;8.82;4.65;;;25.00;54.20;;;;;;5072699;28;20097;-71
2023/05/29 02:14:28;;;;;;;6.95;4.80;;;24.90;54.20;;;;;;5071716;28;20028;-71
2023/05/29 02:16:57;;;;;;;7.60;4.50;;;25.00;54.20;;;;;;5071247;28;20108;-71
2023/05/29 02:19:25;;;;;;;7.72;3.90;;;24.90;54.20;;;;;;5087752;28;20036;-70
2023/05/29 02:21:51;;;;;;;11.27;4.72;;;24.90;54.20;;;;;;5091706;28;20521;-70
2023/05/29 02:24:17;;;;;;;9.95;4.30;;;24.90;54.20;;;;;;5091101;28;20496;-70
2023/05/29 02:26:43;;;;;;;8.23;4.20;;;24.80;54.10;;;;;;5079759;28;20108;-71
2023/05/29 02:29:08;;;;;;;9.00;4.28;;;24.80;54.10;;;;;;5071989;28;20060;-71
2023/05/29 02:31:34;;;;;;;5.65;4.88;;;25.00;54.20;;;;;;5072528;28;20071;-71
2023/05/29 02:34:00;;;;;;;8.27;4.50;;;24.80;54.20;;;;;;5070861;28;20032;-71
2023/05/29 02:36:27;;;;;;;9.80;4.65;;;24.70;54.20;;;;;;5070693;28;20035;-71
2023/05/29 02:38:53;;;;;;;6.68;4.35;;;24.80;54.20;;;;;;5069365;28;20131;-71
2023/05/29 02:41:20;;;;;;;6.95;4.32;;;24.70;54.30;;;;;;5052808;28;20044;-71
2023/05/29 02:43:46;;;;;;;7.00;4.25;;;24.80;54.30;;;;;;5049023;28;20098;-71
2023/05/29 02:46:12;;;;;;;8.45;4.13;;;24.80;54.40;;;;;;5048745;28;20116;-71
2023/05/29 02:48:38;;;;;;;7.18;4.32;;;24.80;54.40;;;;;;5049556;28;20045;-71
2023/05/29 02:51:04;;;;;;;5.70;4.07;;;24.70;54.40;;;;;;5049490;28;20044;-70
2023/05/29 02:53:31;;;;;;;5.82;4.43;;;24.60;54.40;;;;;;5032850;28;20591;-70
2023/05/29 02:55:57;;;;;;;8.50;4.40;;;24.60;54.40;;;;;;5032130;28;20413;-71
2023/05/29 02:58:23;;;;;;;8.90;5.35;;;24.60;54.40;;;;;;5049292;28;20138;-70
2023/05/29 03:00:50;;;;;;;10.48;4.35;;;24.70;54.40;;;;;;5048707;28;20041;-71
2023/05/29 03:03:16;;;;;;;10.13;4.93;;;24.70;54.40;;;;;;5049027;28;20079;-70
2023/05/29 03:05:42;;;;;;;11.25;4.82;;;24.70;54.40;;;;;;5049417;28;20041;-71
2023/05/29 03:08:08;;;;;;;8.98;4.60;;;24.70;54.30;;;;;;5032328;28;20049;-71
2023/05/29 03:10:34;;;;;;;10.35;4.80;;;24.70;54.30;;;;;;5048941;28;20491;-71
2023/05/29 03:13:00;;;;;;;5.88;4.55;;;24.70;54.30;;;;;;5015997;28;20444;-71
2023/05/29 03:15:26;;;;;;;10.18;5.00;;;24.60;54.20;;;;;;5063665;28;20040;-71
2023/05/29 03:17:52;;;;;;;8.32;4.60;;;24.70;54.20;;;;;;5090194;28;21088;-70
2023/05/29 03:20:23;;;;;;;6.18;4.53;;;24.70;54.20;;;;;;5090475;28;20119;-71
2023/05/29 03:22:52;;;;;;;10.70;4.57;;;24.80;54.10;;;;;;5090175;28;20085;-70
2023/05/29 03:25:21;;;;;;;9.02;4.70;;;24.70;54.10;;;;;;5090401;28;20547;-71
2023/05/29 03:27:47;;;;;;;7.85;5.05;;;24.80;54.00;;;;;;5073375;28;20031;-70
2023/05/29 03:30:18;;;;;;;8.45;4.72;;;24.90;54.10;;;;;;5073489;28;20409;-70
2023/05/29 03:32:44;;;;;;;9.35;4.72;;;24.70;54.00;;;;;;5090577;28;20074;-70
2023/05/29 03:35:11;;;;;;;7.53;4.95;;;24.70;54.00;;;;;;5089838;28;20048;-70
2023/05/29 03:37:40;;;;;;;5.03;3.58;;;24.70;54.10;;;;;;5090182;28;20479;-70
2023/05/29 03:40:06;;;;;;;3.55;2.95;;;24.90;54.00;;;;;;5090277;28;20032;-71
2023/05/29 03:42:33;;;;;;;7.75;2.83;;;25.00;53.60;;;;;;5090141;28;20082;-71
2023/05/29 03:45:01;;;;;;;9.32;3.63;;;25.00;52.80;;;;;;5090067;28;20032;-71
2023/05/29 03:47:28;;;;;;;6.68;3.22;;;25.00;51.60;;;;;;5090103;28;20114;-70
2023/05/29 03:49:55;;;;;;;4.72;4.00;;;25.20;50.50;;;;;;5092070;28;20032;-70
2023/05/29 03:52:21;;;;;;;7.63;3.97;;;25.20;49.50;;;;;;5096814;28;20472;-70
2023/05/29 03:54:47;;;;;;;6.85;3.78;;;25.20;48.70;;;;;;5079792;28;20499;-69
2023/05/29 03:57:13;;;;;;;7.28;4.25;;;25.20;48.00;;;;;;5096458;28;20065;-70
2023/05/29 03:59:39;;;;;;;9.90;4.53;;;25.30;47.60;;;;;;5096543;28;20463;-71
2023/05/29 04:02:06;;;;;;;13.25;3.92;;;25.30;47.20;;;;;;5079802;28;20399;-69
2023/05/29 04:04:32;;;;;;;11.55;4.93;;;25.40;48.60;;;;;;5097077;28;20039;-71
2023/05/29 04:06:58;;;;;;;14.43;4.93;;;25.60;50.90;;;;;;5096751;28;20024;-69
2023/05/29 04:09:24;;;;;;;6.30;4.03;;;25.90;52.20;;;;;;5098386;28;20077;-70
2023/05/29 04:11:51;;;;;;;12.38;5.40;;;26.10;51.90;;;;;;5095549;28;20139;-70
2023/05/29 04:14:17;;;;;;;9.73;4.55;;;26.00;49.30;;;;;;5075586;28;20093;-69
2023/05/29 04:16:43;;;;;;;11.18;4.20;;;25.90;47.90;;;;;;5078321;28;20062;-70
2023/05/29 04:19:09;;;;;;;8.00;4.53;;;25.90;47.60;;;;;;5095748;28;20451;-71
2023/05/29 04:21:35;;;;;;;14.15;4.93;;;25.90;47.30;;;;;;5077550;28;20048;-71
2023/05/29 04:24:02;;;;;;;11.07;5.07;;;25.90;47.20;;;;;;5078122;28;20068;-71
2023/05/29 04:26:28;;;;;;;6.45;4.40;;;25.80;47.00;;;;;;5078150;28;20059;-71
2023/05/29 04:28:57;;;;;;;6.22;5.05;;;25.80;46.80;;;;;;5078325;28;20078;-72
2023/05/29 04:31:25;;;;;;;8.45;4.47;;;25.80;46.80;;;;;;5062019;28;20062;-71
2023/05/29 04:33:56;;;;;;;14.07;4.65;;;25.80;46.60;;;;;;5095464;28;20055;-71
2023/05/29 04:36:26;;;;;;;10.20;4.72;;;25.90;46.60;;;;;;5077526;28;20032;-71
2023/05/29 04:38:59;;;;;;;7.82;4.68;;;25.80;46.50;;;;;;5079439;28;20032;-71
2023/05/29 04:41:30;;;;;;;15.48;5.38;;;25.90;46.40;;;;;;5078129;28;20039;-70
2023/05/29 04:43:58;;;;;;;7.13;4.38;;;25.80;46.20;;;;;;5095392;28;20527;-70
2023/05/29 04:46:28;;;;;;;11.05;4.78;;;25.90;46.30;;;;;;5080086;28;20097;-70
2023/05/29 04:48:54;;;;;;;4.50;3.65;;;25.90;44.60;;;;;;5095960;28;20782;-70
2023/05/29 04:51:21;;;;;;;7.43;4.00;;;25.70;43.80;;;;;;5078895;28;20032;-70
2023/05/29 04:53:51;;;;;;;9.98;4.25;;;25.80;43.20;;;;;;5079494;28;20109;-72
2023/05/29 04:56:18;;;;;;;7.53;4.30;;;25.70;42.70;;;;;;5096275;28;20117;-70
2023/05/29 04:58:45;;;;;;;5.30;3.17;;;25.70;43.00;;;;;;5096027;28;20419;-70
2023/05/29 05:01:14;;;;;;;5.00;3.17;;;25.70;44.50;;;;;;5096567;28;20047;-70
2023/05/29 05:03:41;;;;;;;2.53;1.95;;;25.70;44.40;;;;;;5092657;28;20119;-69
2023/05/29 05:06:08;;;;;;;2.70;2.38;;;25.70;45.40;;;;;;5094835;28;20062;-70
2023/05/29 05:08:36;;;;;;;3.55;2.10;;;25.70;45.70;;;;;;5077737;28;20054;-70
2023/05/29 05:11:02;;;;;;;9.65;4.22;;;25.70;46.00;;;;;;5111834;28;20513;-70
2023/05/29 05:13:28;;;;;;;4.63;2.88;;;25.50;46.60;;;;;;5094921;28;20032;-70
2023/05/29 05:15:54;;;;;;;5.88;2.58;;;25.70;48.30;;;;;;5094545;28;20118;-69
2023/05/29 05:18:20;;;;;;;10.38;4.07;;;25.60;47.80;;;;;;5054446;28;20135;-69
2023/05/29 05:20:55;;;;;;;3.25;2.42;;;25.60;47.30;;;;;;5054245;28;20053;-69
2023/05/29 05:23:21;;;;;;;2.50;2.08;;;25.50;47.00;;;;;;5054049;28;20044;-69
2023/05/29 05:25:48;;;;;;;3.75;2.05;;;25.50;48.80;;;;;;5054018;28;20048;-69
2023/05/29 05:28:14;;;;;;;7.55;2.95;;;25.50;47.80;;;;;;5053964;28;20047;-70
2023/05/29 05:30:40;;;;;;;5.78;3.10;;;25.40;48.60;;;;;;5054215;28;20467;-69
2023/05/29 05:33:06;;;;;;;16.58;3.58;;;25.50;48.30;;;;;;5054101;28;20824;-69
2023/05/29 05:35:33;;;;;;;9.55;2.97;;;25.50;50.40;;;;;;5054304;28;20093;-69
2023/05/29 05:38:00;;;;;;;11.32;2.92;;;25.50;48.10;;;;;;5053775;28;20488;-70
2023/05/29 05:40:27;;;;;;;8.82;4.18;;;25.50;47.50;;;;;;5053984;28;20120;-69
2023/05/29 05:42:59;;;;;;;11.43;4.45;;;25.60;50.80;;;;;;5036726;28;20154;-71
2023/05/29 05:45:45;;;;;;;8.63;4.32;;;25.50;49.70;;;;;;5037159;28;20082;-70
2023/05/29 05:48:12;;;;;;;8.80;4.50;;;25.50;49.60;;;;;;5054243;28;20040;-68
2023/05/29 05:50:39;;;;;;;7.43;4.10;;;25.50;49.70;;;;;;5075560;28;20024;-69
2023/05/29 05:53:05;;;;;;;9.75;3.97;;;25.50;49.40;;;;;;5093137;28;20135;-70
2023/05/29 05:55:31;;;;;;;11.88;4.03;;;25.60;49.70;;;;;;5091921;28;20031;-69
2023/05/29 05:57:58;;;;;;;10.43;4.00;;;25.60;48.40;;;;;;5091883;28;20039;-68
2023/05/29 06:00:24;;;;;;;7.15;4.45;;;25.70;48.10;;;;;;5091811;28;20028;-69
2023/05/29 06:02:55;;;;;;;6.68;3.88;;;25.60;47.80;;;;;;5091771;28;20028;-70
2023/05/29 06:05:36;;;;;;;11.43;3.95;;;25.60;47.40;;;;;;5091254;28;20043;-69
2023/05/29 06:08:02;;;;;;;6.47;3.80;;;25.60;47.40;;;;;;5089876;28;20044;-69
2023/05/29 06:10:28;;;;;;;4.97;2.97;;;25.70;44.60;;;;;;5073167;28;20043;-69
2023/05/29 06:12:55;;;;;;;7.70;3.55;;;25.50;44.60;;;;;;5072747;28;20040;-69
2023/05/29 06:15:26;;;;;;;4.83;3.53;;;25.40;44.60;;;;;;5073568;28;20039;-69
2023/05/29 06:17:55;;;;;;;5.32;3.05;;;25.40;44.50;;;;;;5073081;28;20070;-69
2023/05/29 06:20:23;;;;;;;6.25;3.20;;;25.40;43.80;;;;;;5069588;28;20064;-69
2023/05/29 06:22:50;;;;;;;4.28;2.90;;;25.30;44.20;;;;;;5086516;28;20060;-70
2023/05/29 06:25:19;;;;;;;6.00;2.60;;;25.40;44.40;;;;;;5072622;28;20083;-69
2023/05/29 06:27:45;;;;;;;6.78;3.80;;;25.30;44.40;;;;;;5089782;28;20059;-69
2023/05/29 06:30:12;;;;;;;5.30;3.13;;;25.30;44.30;;;;;;5044606;28;20043;-71
2023/05/29 06:32:38;;;;;;;7.43;2.60;;;25.30;44.90;;;;;;5085350;28;20044;-70
2023/05/29 06:35:07;;;;;;;4.20;2.17;;;25.40;45.10;;;;;;5106437;28;20086;-71
2023/05/29 06:37:33;;;;;;;3.88;2.15;;;25.30;45.20;;;;;;5072648;28;20042;-68
2023/05/29 06:39:59;;;;;;;7.45;2.90;;;25.40;45.20;;;;;;5087289;28;20032;-69
2023/05/29 06:42:25;;;;;;;2.97;2.10;;;25.30;45.60;;;;;;5097445;28;20046;-68
2023/05/29 06:44:57;;;;;;;4.47;2.30;;;25.40;46.00;;;;;;5090164;28;20067;-69
2023/05/29 06:47:23;;;;;;;5.53;2.75;;;25.40;46.30;;;;;;5091834;28;20028;-69
2023/05/29 06:49:50;;;;;;;2.30;1.88;;;25.50;46.10;;;;;;5090812;28;20177;-69
2023/05/29 06:52:16;;;;;;;8.45;2.67;;;25.50;45.80;;;;;;5090750;28;20028;-71
2023/05/29 06:55:02;;;;;;;7.93;2.47;;;25.50;45.30;;;;;;5091722;28;20047;-69
2023/05/29 06:57:28;;;;;;;3.90;2.40;;;25.40;45.50;;;;;;5090836;28;20031;-70
2023/05/29 06:59:55;;;;;;;5.68;2.42;;;25.50;45.70;;;;;;5090152;28;20484;-69
2023/05/29 07:02:21;;;;;;;6.93;2.60;;;25.50;45.60;;;;;;5089911;28;20059;-71
2023/05/29 07:04:51;;;;;;;4.07;2.33;;;25.50;45.40;;;;;;5090436;28;20107;-70
2023/05/29 07:07:17;;;;;;;8.18;2.72;;;25.60;45.20;;;;;;5090576;28;20119;-71
2023/05/29 07:09:43;;;;;;;3.92;1.73;;;25.70;44.90;;;;;;5090466;28;20103;-73
2023/05/29 07:12:11;;;;;;;2.80;2.40;;;25.50;45.00;;;;;;5090430;28;20123;-72
2023/05/29 07:14:37;;;;;;;5.53;2.22;;;25.70;45.30;;;;;;5090361;28;20036;-73
2023/05/29 07:17:03;;;;;;;3.45;2.13;;;25.80;45.30;;;;;;5091341;28;20028;-72
2023/05/29 07:19:29;;;;;;;5.63;2.30;;;25.70;45.00;;;;;;5090496;28;20103;-73
2023/05/29 07:21:55;;;;;;;5.75;2.20;;;25.80;45.30;;;;;;5090122;28;20039;-73
2023/05/29 07:24:23;;;;;;;3.83;2.58;;;25.70;45.00;;;;;;5089814;28;20401;-73
2023/05/29 07:26:49;;;;;;;7.18;2.00;;;25.60;45.30;;;;;;5090469;28;20047;-74
2023/05/29 07:29:17;;;;;;;4.57;2.70;;;25.70;45.80;;;;;;5090506;28;20487;-74
2023/05/29 07:31:44;;;;;;;5.47;2.55;;;25.60;45.70;;;;;;5090140;28;20059;-71
2023/05/29 07:34:10;;;;;;;6.80;2.65;;;25.70;45.30;;;;;;5089623;28;20483;-73
2023/05/29 07:36:55;;;;;;;4.20;2.58;;;25.50;45.10;;;;;;5091621;28;20062;-72
2023/05/29 07:39:21;;;;;;;4.40;2.35;;;25.60;44.60;;;;;;5090132;28;20028;-72
2023/05/29 07:41:47;;;;;;;3.75;2.30;;;25.50;44.50;;;;;;5090061;28;20047;-73
2023/05/29 07:44:13;;;;;;;3.38;2.03;;;25.40;44.60;;;;;;5089654;28;20399;-72
2023/05/29 07:46:39;;;;;;;5.55;2.25;;;25.40;45.30;;;;;;5090277;28;20024;-72
2023/05/29 07:49:31;;;;;;;5.25;2.53;;;25.50;45.70;;;;;;5090462;28;20090;-71
2023/05/29 07:51:57;;;;;;;5.85;2.40;;;25.60;45.90;;;;;;5089125;28;20036;-74
2023/05/29 07:54:23;;;;;;;2.97;2.15;;;25.40;46.10;;;;;;5088900;28;20044;-71
2023/05/29 07:56:49;;;;;;;2.95;2.08;;;25.40;46.90;;;;;;5057425;28;20139;-73
2023/05/29 07:59:16;;;;;;;4.32;2.08;;;25.50;46.30;;;;;;5051483;28;20090;-72
2023/05/29 08:01:44;;;;;;;4.38;2.30;;;25.40;46.00;;;;;;5068538;28;20056;-72
2023/05/29 08:04:23;;;;;;;4.43;2.10;;;25.40;46.00;;;;;;5051835;28;20059;-72
2023/05/29 08:06:50;;;;;;;5.18;1.95;;;25.50;45.60;;;;;;5051962;28;20089;-72
2023/05/29 08:09:17;;;;;;;5.03;2.15;;;25.50;45.80;;;;;;5051480;28;20102;-72
2023/05/29 08:11:45;;;;;;;5.15;2.30;;;25.50;46.10;;;;;;5068609;28;20706;-72
2023/05/29 08:14:12;;;;;;;3.58;2.08;;;25.60;46.30;;;;;;5081674;28;20162;-72
2023/05/29 08:16:39;;;;;;;3.10;1.63;;;25.70;47.00;;;;;;5071813;28;20059;-70
2023/05/29 08:19:05;;;;;;;4.22;1.90;;;25.60;46.80;;;;;;5084903;28;20123;-70
2023/05/29 08:21:32;;;;;;;4.30;2.55;;;25.70;47.30;;;;;;5088088;28;20044;-71
2023/05/29 08:23:58;;;;;;;4.22;2.10;;;25.90;47.90;;;;;;5066575;28;20063;-72
2023/05/29 08:26:25;;;;;;;3.22;2.05;;;25.80;44.90;;;;;;5068011;28;20059;-71
2023/05/29 08:28:51;;;;;;;4.88;2.38;;;25.80;42.90;;;;;;5068304;28;20050;-71
2023/05/29 08:31:17;;;;;;;3.13;1.95;;;25.80;43.60;;;;;;5068939;28;20144;-73
2023/05/29 08:33:43;;;;;;;1.95;1.55;;;25.80;44.50;;;;;;5080227;28;20036;-71
2023/05/29 08:36:10;;;;;;;3.13;1.80;;;25.90;45.00;;;;;;5091655;28;20028;-72
2023/05/29 08:38:36;;;;;;;2.60;1.65;;;25.90;45.70;;;;;;5094538;28;20024;-72
2023/05/29 08:41:04;;;;;;;4.05;1.80;;;25.80;47.40;;;;;;5092067;28;20099;-69
2023/05/29 08:43:31;;;;;;;5.40;1.63;;;25.80;48.00;;;;;;5093199;28;20043;-69
2023/05/29 08:46:00;;;;;;;3.15;2.00;;;25.70;47.50;;;;;;5094658;28;20063;-69
2023/05/29 08:48:28;;;;;;;3.22;1.63;;;25.90;47.10;;;;;;5094327;28;20032;-70
2023/05/29 08:50:56;;;;;;;2.33;1.88;;;26.00;47.30;;;;;;5094461;28;20388;-70
2023/05/29 08:53:23;;;;;;;4.40;2.13;;;26.20;48.70;;;;;;5094424;28;20032;-72
2023/05/29 08:55:51;;;;;;;6.32;2.38;;;26.50;53.80;;;;;;5093243;28;20118;-71
2023/05/29 08:58:18;;;;;;;2.55;1.85;;;26.80;52.50;;;;;;5094107;28;20386;-71
2023/05/29 09:00:48;;;;;;;2.45;1.88;;;26.70;45.20;;;;;;5094308;28;20031;-73
2023/05/29 09:03:15;;;;;;;2.40;2.17;;;26.50;44.40;;;;;;5093656;28;20056;-73
2023/05/29 09:05:41;;;;;;;4.70;2.08;;;26.50;43.70;;;;;;5092797;28;20388;-73
2023/05/29 09:08:15;;;;;;;2.15;1.95;;;26.40;44.40;;;;;;5093751;28;20452;-73
2023/05/29 09:10:45;;;;;;;2.55;1.90;;;26.40;44.90;;;;;;5094077;28;20082;-72
2023/05/29 09:13:13;;;;;;;6.28;2.30;;;26.40;44.90;;;;;;5094115;28;20089;-72
2023/05/29 09:15:42;;;;;;;5.03;2.50;;;26.30;44.50;;;;;;5094120;28;20036;-72
2023/05/29 09:18:09;;;;;;;2.90;1.50;;;26.30;44.90;;;;;;5093819;28;20096;-72
2023/05/29 09:20:35;;;;;;;2.47;2.10;;;26.30;44.90;;;;;;5093691;28;20107;-72
2023/05/29 09:23:04;;;;;;;5.43;2.30;;;26.40;44.50;;;;;;5092437;28;20419;-72
2023/05/29 09:25:34;;;;;;;4.63;2.72;;;26.30;45.30;;;;;;5094152;28;20031;-71
2023/05/29 09:28:02;;;;;;;13.30;6.65;;;26.40;46.50;;;;;;5093972;28;20063;-71
2023/05/29 09:30:38;;;;;;;4.18;2.55;;;26.50;45.70;;;;;;5093557;28;20036;-71
2023/05/29 09:33:24;;;;;;;2.75;1.95;;;26.70;45.10;;;;;;5093314;28;20115;-70
2023/05/29 09:35:50;;;;;;;3.22;2.00;;;26.70;44.80;;;;;;5093050;28;20054;-70
2023/05/29 09:38:18;;;;;;;2.60;2.05;;;26.70;44.90;;;;;;5093681;28;20543;-74
2023/05/29 09:40:47;;;;;;;4.40;2.25;;;26.60;45.00;;;;;;5093402;28;20034;-72
2023/05/29 09:43:18;;;;;;;4.70;2.72;;;26.50;45.80;;;;;;5093179;28;20062;-72
2023/05/29 09:45:46;;;;;;;4.43;2.10;;;26.60;45.30;;;;;;5093338;28;20047;-72
2023/05/29 09:48:16;;;;;;;4.88;1.92;;;26.70;44.90;;;;;;5092521;28;20035;-72
2023/05/29 09:50:47;;;;;;;7.05;2.38;;;26.60;45.40;;;;;;5093279;28;20043;-72
2023/05/29 09:53:24;;;;;;;3.80;2.33;;;26.60;45.80;;;;;;5093289;28;20467;-71
2023/05/29 09:55:55;;;;;;;4.40;2.10;;;26.80;46.10;;;;;;5093107;28;20032;-70
2023/05/29 09:58:22;;;;;;;4.03;2.20;;;26.80;45.10;;;;;;5093441;28;20085;-73
2023/05/29 10:00:49;;;;;;;5.57;2.10;;;26.70;44.90;;;;;;5093038;28;20066;-71
2023/05/29 10:03:16;;;;;;;4.97;2.00;;;26.70;46.70;;;;;;5092750;28;20115;-71
2023/05/29 10:05:43;;;;;;;3.75;2.17;;;26.60;46.00;;;;;;5093104;28;20476;-72
2023/05/29 10:08:13;;;;;;;3.20;1.77;;;26.60;46.60;;;;;;5091922;28;20483;-71
2023/05/29 10:10:46;;;;;;;4.10;2.42;;;26.40;47.00;;;;;;5092901;28;20028;-73
2023/05/29 10:13:13;;;;;;;10.88;2.75;;;26.40;48.00;;;;;;5091839;28;20309;-71
2023/05/29 10:15:42;;;;;;;4.38;2.55;;;26.60;47.30;;;;;;5089659;28;20039;-70
2023/05/29 10:18:36;;;;;;;4.45;2.28;;;26.70;50.60;;;;;;5071230;28;20531;-74
2023/05/29 10:21:04;;;;;;;7.10;2.65;;;26.70;51.10;;;;;;5072557;28;20064;-74
2023/05/29 10:23:31;;;;;;;4.50;2.03;;;26.70;50.60;;;;;;5072621;28;20063;-74
2023/05/29 10:26:05;;;;;;;3.88;2.40;;;26.60;51.90;;;;;;5087836;28;20036;-71
2023/05/29 10:28:31;;;;;;;4.40;2.20;;;27.00;55.70;;;;;;5091190;28;20441;-71
2023/05/29 10:31:08;;;;;;;2.60;2.08;;;27.70;59.00;;;;;;5091163;28;20110;-73
2023/05/29 10:33:50;;;;;;;7.68;2.00;;;28.00;60.30;;;;;;5092693;28;20405;-75
2023/05/29 10:36:24;;;;;;;2.65;2.17;;;28.20;49.50;;;;;;5091347;28;20044;-73
2023/05/29 10:38:51;;;;;;;4.30;2.22;;;28.00;49.40;;;;;;5081791;28;20812;-74
2023/05/29 10:41:26;;;;;;;4.80;2.20;;;27.70;48.70;;;;;;5071981;28;20037;-73
2023/05/29 10:43:57;;;;;;;3.95;2.25;;;27.50;47.50;;;;;;5072100;28;20063;-72
2023/05/29 10:46:48;;;;;;;2.97;2.17;;;27.30;48.30;;;;;;5072273;28;20044;-74
2023/05/29 10:49:21;;;;;;;3.42;2.55;;;27.20;48.10;;;;;;5072007;28;20044;-74
2023/05/29 10:51:48;;;;;;;9.90;2.90;;;27.30;47.40;;;;;;5090689;28;20039;-74
2023/05/29 10:54:16;;;;;;;2.88;1.98;;;27.20;49.20;;;;;;5092567;28;20537;-74
2023/05/29 10:56:52;;;;;;;3.35;2.60;;;27.10;49.30;;;;;;5090880;28;20074;-74
2023/05/29 10:59:18;;;;;;;2.80;1.92;;;27.00;49.40;;;;;;5091576;28;20043;-74
2023/05/29 11:01:44;;;;;;;2.10;1.90;;;27.00;49.60;;;;;;5091857;28;20040;-73
2023/05/29 11:04:26;;;;;;;3.95;2.47;;;27.00;49.70;;;;;;5091391;28;20024;-74
2023/05/29 11:06:53;;;;;;;2.17;1.93;;;26.90;48.90;;;;;;5092115;28;20089;-73
2023/05/29 11:09:37;;;;;;;2.83;1.92;;;26.90;47.90;;;;;;5090592;28;20691;-73
2023/05/29 11:12:32;;;;;;;2.10;1.90;;;26.80;49.10;;;;;;5089852;28;20032;-73
2023/05/29 11:15:05;;;;;;;4.45;2.22;;;26.80;49.10;;;;;;5091602;28;20036;-74
2023/05/29 11:17:38;;;;;;;2.65;1.92;;;26.80;49.40;;;;;;5091668;28;20089;-73
2023/05/29 11:20:13;;;;;;;4.65;2.63;;;26.70;48.80;;;;;;5091334;28;20055;-74
2023/05/29 11:22:42;;;;;;;3.05;2.03;;;26.80;49.10;;;;;;5090963;28;20030;-72
2023/05/29 11:25:08;;;;;;;2.85;2.22;;;26.60;49.50;;;;;;5091328;28;20086;-73
2023/05/29 11:27:35;;;;;;;4.07;2.38;;;26.60;49.60;;;;;;5091543;28;20040;-72
2023/05/29 11:30:01;;;;;;;7.47;2.55;;;26.60;49.10;;;;;;5091080;28;20115;-74
2023/05/29 11:32:29;;;;;;;1.70;1.60;;;26.60;49.50;;;;;;5091284;28;20028;-74
2023/05/29 11:34:59;;;;;;;3.78;2.38;;;26.50;49.50;;;;;;5089199;28;20616;-73
2023/05/29 11:37:25;;;;;;;3.72;2.22;;;26.60;49.40;;;;;;5091583;28;20047;-72
2023/05/29 11:39:51;;;;;;;2.30;1.90;;;26.60;49.60;;;;;;5088852;28;20047;-72
2023/05/29 11:42:17;;;;;;;6.38;2.03;;;26.40;49.60;;;;;;5091465;28;20472;-72
2023/05/29 11:44:43;;;;;;;5.47;2.47;;;26.60;49.70;;;;;;5091428;28;20392;-73
2023/05/29 11:47:09;;;;;;;3.50;1.90;;;26.60;48.60;;;;;;5090989;28;20032;-74
2023/05/29 11:49:37;;;;;;;3.90;1.98;;;26.60;49.80;;;;;;5091115;28;20036;-73
2023/05/29 11:52:12;;;;;;;3.40;1.90;;;26.60;49.30;;;;;;5091180;28;20067;-74
2023/05/29 11:54:38;;;;;;;2.40;1.75;;;26.60;48.60;;;;;;5091256;28;20472;-75
2023/05/29 11:57:07;;;;;;;2.60;2.05;;;26.50;49.90;;;;;;5091048;28;20055;-74
2023/05/29 11:59:33;;;;;;;3.88;2.40;;;26.50;49.60;;;;;;5091320;28;20081;-73
2023/05/29 12:02:02;;;;;;;4.15;2.08;;;26.40;50.30;;;;;;5090128;28;20089;-76
2023/05/29 12:04:29;;;;;;;8.27;2.72;;;26.40;50.30;;;;;;5091277;28;20357;-75
2023/05/29 12:06:55;;;;;;;6.53;2.70;;;26.30;52.50;;;;;;5086831;28;20036;-74
2023/05/29 12:09:29;;;;;;;7.88;3.10;;;26.40;53.60;;;;;;5091286;28;20048;-71
2023/05/29 12:12:02;;;;;;;5.57;1.98;;;26.40;55.40;;;;;;5093365;28;20085;-72
2023/05/29 12:14:28;;;;;;;9.15;2.17;;;26.40;55.10;;;;;;5095278;28;20036;-73
2023/05/29 12:16:54;;;;;;;8.27;2.22;;;26.50;53.50;;;;;;5095252;28;20114;-71
2023/05/29 12:19:20;;;;;;;3.00;2.33;;;26.40;52.50;;;;;;5093677;28;20403;-72
2023/05/29 12:21:46;;;;;;;5.03;2.53;;;26.40;52.20;;;;;;5095301;28;20032;-72
2023/05/29 12:24:13;;;;;;;5.50;2.20;;;26.30;51.90;;;;;;5087952;28;20056;-72
2023/05/29 12:26:39;;;;;;;4.85;2.05;;;26.30;51.80;;;;;;5074800;28;20598;-72
2023/05/29 12:29:05;;;;;;;5.72;2.10;;;26.40;51.20;;;;;;5074498;28;20088;-67
2023/05/29 12:31:33;;;;;;;5.93;1.98;;;26.50;50.60;;;;;;5074672;28;20028;-72
2023/05/29 12:34:10;;;;;;;3.40;2.58;;;26.40;50.80;;;;;;5087287;28;20114;-71
2023/05/29 12:36:40;;;;;;;3.35;1.85;;;26.30;50.70;;;;;;5093724;28;20036;-71
2023/05/29 12:39:10;;;;;;;2.67;1.77;;;26.50;51.10;;;;;;5094653;28;20051;-71
2023/05/29 12:41:37;;;;;;;8.15;2.45;;;26.50;50.70;;;;;;5094797;28;20035;-70
2023/05/29 12:44:06;;;;;;;5.88;2.05;;;26.40;51.00;;;;;;5094012;28;20047;-69
2023/05/29 12:46:46;;;;;;;3.72;1.83;;;26.30;50.90;;;;;;5094504;28;20036;-70
2023/05/29 12:49:16;;;;;;;4.97;2.17;;;26.40;50.80;;;;;;5094579;28;20071;-70
2023/05/29 12:51:43;;;;;;;2.08;1.55;;;26.40;50.80;;;;;;5094736;28;20399;-70